SAS603 EKCH-LSZH
Flight info
| Callsign | SAS603 |
|---|---|
| Flight time | 1h 24m |
| Altitude | 36000 |
| Route | NEXEN T503 GIMRU DCT MICOS DCT TOLGI DCT SWALM DCT OMOGI/N0452F350 T721 RILAX |
| Aircraft | A320/M-SDE3FGHIJ1RWXYZ/ALB1 |
Departure
| Time | 2026-05-07 08:54 |
|---|---|
| Airport | Copenhagen Kastrup Airport (EKCH) |
Arrival
| Time | 2026-05-07 10:18 |
|---|---|
| Airport | Zürich Airport (LSZH) |
| Time | Latitude | Longitude | Altitude | Speed | Heading |
|---|---|---|---|---|---|
| 2026-05-07 08:19 | 55.62648 | 12.64555 | 26 ft | 0 kts | 281° |
| 2026-05-07 08:45 | 55.62645 | 12.64583 | 24 ft | 4 kts | 276° |
| 2026-05-07 08:45 | 55.62645 | 12.64630 | 25 ft | 4 kts | 256° |
| 2026-05-07 08:45 | 55.62656 | 12.64667 | 25 ft | 4 kts | 205° |
| 2026-05-07 08:46 | 55.62657 | 12.64670 | 25 ft | 4 kts | 192° |
| 2026-05-07 08:46 | 55.62631 | 12.64660 | 25 ft | 4 kts | 191° |
| 2026-05-07 08:46 | 55.62604 | 12.64654 | 24 ft | 4 kts | 186° |
| 2026-05-07 08:46 | 55.62580 | 12.64652 | 24 ft | 1 kts | 181° |
| 2026-05-07 08:47 | 55.62556 | 12.64652 | 24 ft | 4 kts | 179° |
| 2026-05-07 08:47 | 55.62532 | 12.64653 | 24 ft | 1 kts | 179° |
| 2026-05-07 08:47 | 55.62531 | 12.64653 | 24 ft | 0 kts | 179° |
| 2026-05-07 08:49 | 55.62526 | 12.64653 | 24 ft | 3 kts | 178° |
| 2026-05-07 08:49 | 55.62496 | 12.64657 | 26 ft | 6 kts | 176° |
| 2026-05-07 08:49 | 55.62461 | 12.64616 | 24 ft | 7 kts | 248° |
| 2026-05-07 08:50 | 55.62469 | 12.64517 | 24 ft | 9 kts | 259° |
| 2026-05-07 08:50 | 55.62411 | 12.64457 | 24 ft | 11 kts | 196° |
| 2026-05-07 08:50 | 55.62327 | 12.64418 | 26 ft | 14 kts | 195° |
| 2026-05-07 08:50 | 55.62222 | 12.64362 | 21 ft | 18 kts | 204° |
| 2026-05-07 08:51 | 55.62106 | 12.64266 | 25 ft | 19 kts | 205° |
| 2026-05-07 08:51 | 55.61977 | 12.64157 | 24 ft | 22 kts | 205° |
| 2026-05-07 08:51 | 55.61852 | 12.64072 | 24 ft | 19 kts | 182° |
| 2026-05-07 08:51 | 55.61757 | 12.64081 | 24 ft | 8 kts | 176° |
| 2026-05-07 08:52 | 55.61748 | 12.64082 | 26 ft | 0 kts | 176° |
| 2026-05-07 08:52 | 55.61747 | 12.64082 | 26 ft | 1 kts | 176° |
| 2026-05-07 08:52 | 55.61729 | 12.64084 | 25 ft | 8 kts | 176° |
| 2026-05-07 08:52 | 55.61644 | 12.64084 | 27 ft | 13 kts | 194° |
| 2026-05-07 08:53 | 55.61579 | 12.63998 | 30 ft | 14 kts | 221° |
| 2026-05-07 08:53 | 55.61385 | 12.63697 | 25 ft | 71 kts | 221° |
| 2026-05-07 08:53 | 55.60850 | 12.62869 | 26 ft | 131 kts | 221° |
| 2026-05-07 08:53 | 55.60045 | 12.61626 | 91 ft | 170 kts | 221° |
| 2026-05-07 08:54 | 55.59149 | 12.60251 | 707 ft | 172 kts | 222° |
| 2026-05-07 08:54 | 55.58238 | 12.58854 | 1355 ft | 179 kts | 221° |
| 2026-05-07 08:54 | 55.57224 | 12.57294 | 1596 ft | 208 kts | 221° |
| 2026-05-07 08:54 | 55.56048 | 12.55615 | 1975 ft | 232 kts | 217° |
| 2026-05-07 08:55 | 55.54664 | 12.53872 | 2489 ft | 256 kts | 214° |
| 2026-05-07 08:55 | 55.53164 | 12.52064 | 3327 ft | 263 kts | 214° |
| 2026-05-07 08:55 | 55.51638 | 12.50227 | 4292 ft | 268 kts | 214° |
| 2026-05-07 08:55 | 55.50086 | 12.48357 | 5242 ft | 272 kts | 214° |
| 2026-05-07 08:56 | 55.48516 | 12.46455 | 6171 ft | 276 kts | 215° |
| 2026-05-07 08:56 | 55.46915 | 12.44509 | 6832 ft | 283 kts | 215° |
| 2026-05-07 08:56 | 55.45292 | 12.42534 | 7232 ft | 286 kts | 216° |
| 2026-05-07 08:56 | 55.43680 | 12.40565 | 8159 ft | 286 kts | 216° |
| 2026-05-07 08:57 | 55.42036 | 12.38562 | 9055 ft | 289 kts | 215° |
| 2026-05-07 08:57 | 55.40373 | 12.36538 | 9929 ft | 293 kts | 215° |
| 2026-05-07 08:57 | 55.38666 | 12.34461 | 10461 ft | 308 kts | 216° |
| 2026-05-07 08:57 | 55.36835 | 12.32232 | 10674 ft | 332 kts | 216° |
| 2026-05-07 08:58 | 55.34881 | 12.29858 | 10997 ft | 349 kts | 215° |
| 2026-05-07 08:58 | 55.32867 | 12.27419 | 11656 ft | 354 kts | 216° |
| 2026-05-07 08:58 | 55.30830 | 12.24958 | 12391 ft | 357 kts | 216° |
| 2026-05-07 08:58 | 55.28781 | 12.22484 | 13165 ft | 359 kts | 216° |
| 2026-05-07 08:59 | 55.26745 | 12.20028 | 13903 ft | 361 kts | 216° |
| 2026-05-07 08:59 | 55.24664 | 12.17519 | 14558 ft | 364 kts | 216° |
| 2026-05-07 08:59 | 55.22571 | 12.14993 | 15212 ft | 367 kts | 216° |
| 2026-05-07 08:59 | 55.20464 | 12.12454 | 15856 ft | 369 kts | 216° |
| 2026-05-07 09:00 | 55.18357 | 12.09867 | 16491 ft | 371 kts | 217° |
| 2026-05-07 09:00 | 55.16262 | 12.07210 | 17146 ft | 373 kts | 217° |
| 2026-05-07 09:00 | 55.14563 | 12.05017 | 17679 ft | 375 kts | 218° |
| 2026-05-07 09:00 | 55.14081 | 12.04392 | 17827 ft | 376 kts | 218° |
| 2026-05-07 09:01 | 55.11998 | 12.01688 | 18473 ft | 379 kts | 218° |
| 2026-05-07 09:01 | 55.09875 | 11.98940 | 19068 ft | 382 kts | 218° |
| 2026-05-07 09:01 | 55.07730 | 11.96176 | 19688 ft | 384 kts | 218° |
| 2026-05-07 09:01 | 55.05568 | 11.93411 | 20309 ft | 387 kts | 217° |
| 2026-05-07 09:02 | 55.03385 | 11.90638 | 20914 ft | 389 kts | 217° |
| 2026-05-07 09:02 | 55.01192 | 11.87860 | 21485 ft | 391 kts | 217° |
| 2026-05-07 09:02 | 54.98978 | 11.85062 | 22034 ft | 394 kts | 217° |
| 2026-05-07 09:02 | 54.96756 | 11.82254 | 22568 ft | 396 kts | 217° |
| 2026-05-07 09:03 | 54.94520 | 11.79433 | 23076 ft | 398 kts | 217° |
| 2026-05-07 09:03 | 54.92304 | 11.76635 | 23604 ft | 400 kts | 217° |
| 2026-05-07 09:03 | 54.90044 | 11.73786 | 24042 ft | 402 kts | 217° |
| 2026-05-07 09:03 | 54.87775 | 11.70928 | 24448 ft | 404 kts | 217° |
| 2026-05-07 09:04 | 54.85493 | 11.68058 | 24844 ft | 406 kts | 217° |
| 2026-05-07 09:04 | 54.83196 | 11.65175 | 25225 ft | 409 kts | 217° |
| 2026-05-07 09:04 | 54.80880 | 11.62276 | 25594 ft | 411 kts | 217° |
| 2026-05-07 09:04 | 54.78554 | 11.59368 | 25969 ft | 414 kts | 217° |
| 2026-05-07 09:05 | 54.76216 | 11.56443 | 26350 ft | 416 kts | 217° |
| 2026-05-07 09:05 | 54.73862 | 11.53499 | 26725 ft | 418 kts | 217° |
| 2026-05-07 09:05 | 54.71526 | 11.50588 | 27084 ft | 421 kts | 217° |
| 2026-05-07 09:05 | 54.69141 | 11.47628 | 27441 ft | 424 kts | 217° |
| 2026-05-07 09:06 | 54.66741 | 11.44651 | 27801 ft | 426 kts | 217° |
| 2026-05-07 09:06 | 54.64327 | 11.41658 | 28159 ft | 429 kts | 217° |
| 2026-05-07 09:06 | 54.61895 | 11.38643 | 28490 ft | 431 kts | 217° |
| 2026-05-07 09:06 | 54.59453 | 11.35620 | 28825 ft | 433 kts | 217° |
| 2026-05-07 09:07 | 54.56993 | 11.32584 | 29127 ft | 436 kts | 217° |
| 2026-05-07 09:07 | 54.54519 | 11.29541 | 29523 ft | 437 kts | 217° |
| 2026-05-07 09:07 | 54.52077 | 11.26556 | 30004 ft | 436 kts | 217° |
| 2026-05-07 09:07 | 54.49604 | 11.23549 | 30436 ft | 435 kts | 217° |
| 2026-05-07 09:08 | 54.47130 | 11.20547 | 30837 ft | 435 kts | 216° |
| 2026-05-07 09:08 | 54.44658 | 11.17559 | 31221 ft | 435 kts | 216° |
| 2026-05-07 09:08 | 54.42186 | 11.14571 | 31608 ft | 434 kts | 216° |
| 2026-05-07 09:08 | 54.39720 | 11.11582 | 32035 ft | 434 kts | 216° |
| 2026-05-07 09:09 | 54.37255 | 11.08598 | 32468 ft | 433 kts | 216° |
| 2026-05-07 09:09 | 54.34788 | 11.05624 | 32886 ft | 433 kts | 216° |
| 2026-05-07 09:09 | 54.32357 | 11.02708 | 33298 ft | 432 kts | 215° |
| 2026-05-07 09:09 | 54.29746 | 11.00155 | 33723 ft | 433 kts | 206° |
| 2026-05-07 09:10 | 54.26947 | 10.98243 | 34128 ft | 434 kts | 201° |
| 2026-05-07 09:10 | 54.24117 | 10.96466 | 34481 ft | 433 kts | 201° |
| 2026-05-07 09:10 | 54.21287 | 10.94692 | 34803 ft | 433 kts | 201° |
| 2026-05-07 09:10 | 54.18453 | 10.92907 | 35122 ft | 434 kts | 201° |
| 2026-05-07 09:11 | 54.15625 | 10.91123 | 35431 ft | 434 kts | 201° |
| 2026-05-07 09:11 | 54.12795 | 10.89343 | 35734 ft | 434 kts | 201° |
| 2026-05-07 09:11 | 54.09962 | 10.87570 | 36002 ft | 434 kts | 201° |
| 2026-05-07 09:11 | 54.07114 | 10.85791 | 36064 ft | 437 kts | 201° |
| 2026-05-07 09:12 | 54.01383 | 10.82217 | 36063 ft | 440 kts | 201° |
| 2026-05-07 09:12 | 53.95634 | 10.78647 | 36059 ft | 440 kts | 201° |
| 2026-05-07 09:13 | 53.89887 | 10.75082 | 36058 ft | 440 kts | 201° |
| 2026-05-07 09:13 | 53.84173 | 10.71546 | 36056 ft | 440 kts | 201° |
| 2026-05-07 09:14 | 53.78421 | 10.67995 | 36063 ft | 440 kts | 201° |
| 2026-05-07 09:14 | 53.72660 | 10.64451 | 36062 ft | 441 kts | 201° |
| 2026-05-07 09:15 | 53.66899 | 10.60927 | 36060 ft | 441 kts | 201° |
| 2026-05-07 09:15 | 53.61173 | 10.57431 | 36064 ft | 441 kts | 201° |
| 2026-05-07 09:16 | 53.55406 | 10.53913 | 36067 ft | 441 kts | 201° |
| 2026-05-07 09:16 | 53.49642 | 10.50409 | 36070 ft | 441 kts | 201° |
| 2026-05-07 09:17 | 53.43870 | 10.46910 | 36066 ft | 441 kts | 201° |
| 2026-05-07 09:17 | 53.38033 | 10.43390 | 36062 ft | 441 kts | 201° |
| 2026-05-07 09:18 | 53.32356 | 10.39980 | 36066 ft | 441 kts | 201° |
| 2026-05-07 09:18 | 53.26579 | 10.36507 | 36054 ft | 441 kts | 201° |
| 2026-05-07 09:19 | 53.20799 | 10.33039 | 36054 ft | 441 kts | 201° |
| 2026-05-07 09:19 | 53.15061 | 10.29604 | 36052 ft | 441 kts | 200° |
| 2026-05-07 09:20 | 53.09280 | 10.26163 | 36047 ft | 441 kts | 200° |
| 2026-05-07 09:20 | 53.03492 | 10.22733 | 36045 ft | 441 kts | 200° |
| 2026-05-07 09:21 | 52.97707 | 10.19312 | 36044 ft | 441 kts | 200° |
| 2026-05-07 09:21 | 52.91957 | 10.15917 | 36050 ft | 441 kts | 200° |
| 2026-05-07 09:22 | 52.86167 | 10.12522 | 36047 ft | 442 kts | 200° |
| 2026-05-07 09:22 | 52.80370 | 10.09115 | 36039 ft | 442 kts | 200° |
| 2026-05-07 09:23 | 52.74572 | 10.05708 | 36035 ft | 443 kts | 200° |
| 2026-05-07 09:23 | 52.68769 | 10.02312 | 36041 ft | 443 kts | 200° |
| 2026-05-07 09:24 | 52.62994 | 9.98948 | 36038 ft | 443 kts | 200° |
| 2026-05-07 09:24 | 52.57181 | 9.95575 | 36035 ft | 443 kts | 200° |
| 2026-05-07 09:25 | 52.51361 | 9.92220 | 36037 ft | 443 kts | 200° |
| 2026-05-07 09:25 | 52.45545 | 9.88869 | 36041 ft | 443 kts | 200° |
| 2026-05-07 09:26 | 52.39771 | 9.85534 | 36043 ft | 443 kts | 200° |
| 2026-05-07 09:26 | 52.33955 | 9.82197 | 36037 ft | 443 kts | 200° |
| 2026-05-07 09:27 | 52.28133 | 9.78861 | 36037 ft | 443 kts | 200° |
| 2026-05-07 09:28 | 52.19400 | 9.73879 | 36035 ft | 443 kts | 200° |
| 2026-05-07 09:28 | 52.13620 | 9.70595 | 36037 ft | 443 kts | 200° |
| 2026-05-07 09:29 | 52.07801 | 9.67292 | 36025 ft | 443 kts | 200° |
| 2026-05-07 09:29 | 52.01973 | 9.63998 | 36027 ft | 443 kts | 200° |
| 2026-05-07 09:30 | 51.96146 | 9.60720 | 36022 ft | 443 kts | 200° |
| 2026-05-07 09:30 | 51.90353 | 9.57467 | 36023 ft | 443 kts | 200° |
| 2026-05-07 09:31 | 51.84525 | 9.54203 | 36019 ft | 443 kts | 200° |
| 2026-05-07 09:31 | 51.78509 | 9.51967 | 36018 ft | 444 kts | 191° |
| 2026-05-07 09:32 | 51.72429 | 9.50147 | 36018 ft | 444 kts | 191° |
| 2026-05-07 09:32 | 51.66388 | 9.48335 | 36014 ft | 445 kts | 191° |
| 2026-05-07 09:33 | 51.60300 | 9.46510 | 36012 ft | 445 kts | 192° |
| 2026-05-07 09:33 | 51.54211 | 9.44688 | 36012 ft | 445 kts | 191° |
| 2026-05-07 09:34 | 51.48120 | 9.42886 | 36010 ft | 445 kts | 191° |
| 2026-05-07 09:34 | 51.42024 | 9.41085 | 36007 ft | 445 kts | 191° |
| 2026-05-07 09:35 | 51.35936 | 9.39271 | 36014 ft | 445 kts | 192° |
| 2026-05-07 09:35 | 51.29884 | 9.37475 | 36010 ft | 445 kts | 192° |
| 2026-05-07 09:36 | 51.23795 | 9.35687 | 36012 ft | 445 kts | 191° |
| 2026-05-07 09:36 | 51.17704 | 9.33903 | 36009 ft | 445 kts | 191° |
| 2026-05-07 09:37 | 51.11611 | 9.32118 | 36010 ft | 446 kts | 191° |
| 2026-05-07 09:37 | 51.05549 | 9.30343 | 36008 ft | 446 kts | 191° |
| 2026-05-07 09:38 | 50.99445 | 9.28561 | 36007 ft | 446 kts | 191° |
| 2026-05-07 09:38 | 50.93334 | 9.26789 | 36003 ft | 446 kts | 191° |
| 2026-05-07 09:39 | 50.87223 | 9.25025 | 36000 ft | 447 kts | 191° |
| 2026-05-07 09:39 | 50.81141 | 9.23279 | 36000 ft | 447 kts | 191° |
| 2026-05-07 09:40 | 50.74981 | 9.21505 | 36000 ft | 447 kts | 191° |
| 2026-05-07 09:40 | 50.68893 | 9.19838 | 36001 ft | 447 kts | 189° |
| 2026-05-07 09:41 | 50.62712 | 9.18546 | 36002 ft | 448 kts | 188° |
| 2026-05-07 09:41 | 50.56528 | 9.17379 | 36002 ft | 448 kts | 188° |
| 2026-05-07 09:42 | 50.50344 | 9.16149 | 36004 ft | 448 kts | 188° |
| 2026-05-07 09:42 | 50.44169 | 9.14858 | 36006 ft | 448 kts | 188° |
| 2026-05-07 09:43 | 50.37992 | 9.13564 | 36005 ft | 448 kts | 188° |
| 2026-05-07 09:43 | 50.31854 | 9.12306 | 36007 ft | 448 kts | 188° |
| 2026-05-07 09:44 | 50.25670 | 9.11049 | 36008 ft | 448 kts | 188° |
| 2026-05-07 09:44 | 50.19495 | 9.09793 | 36016 ft | 448 kts | 188° |
| 2026-05-07 09:45 | 50.13313 | 9.08539 | 36015 ft | 448 kts | 188° |
| 2026-05-07 09:45 | 50.07136 | 9.07275 | 36019 ft | 448 kts | 188° |
| 2026-05-07 09:46 | 50.00996 | 9.06024 | 36023 ft | 448 kts | 188° |
| 2026-05-07 09:46 | 49.94833 | 9.04782 | 35792 ft | 445 kts | 188° |
| 2026-05-07 09:46 | 49.91757 | 9.04163 | 35234 ft | 444 kts | 188° |
| 2026-05-07 09:47 | 49.88691 | 9.03543 | 35027 ft | 445 kts | 188° |
| 2026-05-07 09:47 | 49.82534 | 9.02297 | 35012 ft | 448 kts | 188° |
| 2026-05-07 09:48 | 49.76394 | 9.01072 | 35016 ft | 448 kts | 188° |
| 2026-05-07 09:48 | 49.70208 | 8.99836 | 35016 ft | 448 kts | 188° |
| 2026-05-07 09:49 | 49.64025 | 8.98577 | 35014 ft | 448 kts | 189° |
| 2026-05-07 09:49 | 49.57881 | 8.96960 | 35020 ft | 448 kts | 192° |
| 2026-05-07 09:50 | 49.51803 | 8.95167 | 35016 ft | 448 kts | 192° |
| 2026-05-07 09:50 | 49.46060 | 8.93530 | 35023 ft | 448 kts | 191° |
| 2026-05-07 09:51 | 49.42540 | 8.92566 | 35021 ft | 448 kts | 191° |
| 2026-05-07 09:51 | 49.36398 | 8.90896 | 35026 ft | 448 kts | 191° |
| 2026-05-07 09:52 | 49.30296 | 8.89246 | 35030 ft | 448 kts | 191° |
| 2026-05-07 09:52 | 49.24164 | 8.87582 | 35026 ft | 448 kts | 191° |
| 2026-05-07 09:53 | 49.18031 | 8.85915 | 35021 ft | 448 kts | 192° |
| 2026-05-07 09:53 | 49.11897 | 8.84241 | 35027 ft | 447 kts | 192° |
| 2026-05-07 09:54 | 49.05816 | 8.82583 | 35032 ft | 447 kts | 192° |
| 2026-05-07 09:54 | 48.99685 | 8.80922 | 35030 ft | 447 kts | 192° |
| 2026-05-07 09:55 | 48.93562 | 8.79265 | 35025 ft | 447 kts | 192° |
| 2026-05-07 09:55 | 48.87440 | 8.77609 | 35029 ft | 447 kts | 192° |
| 2026-05-07 09:56 | 48.81315 | 8.75968 | 35031 ft | 447 kts | 192° |
| 2026-05-07 09:56 | 48.75238 | 8.74348 | 35038 ft | 447 kts | 192° |
| 2026-05-07 09:57 | 48.69118 | 8.72709 | 35024 ft | 446 kts | 192° |
| 2026-05-07 09:57 | 48.63004 | 8.71070 | 35027 ft | 446 kts | 192° |
| 2026-05-07 09:58 | 48.56886 | 8.69437 | 35032 ft | 446 kts | 192° |
| 2026-05-07 09:58 | 48.50814 | 8.67822 | 35032 ft | 446 kts | 192° |
| 2026-05-07 09:59 | 48.44700 | 8.66214 | 35035 ft | 446 kts | 192° |
| 2026-05-07 09:59 | 48.38581 | 8.64610 | 35036 ft | 446 kts | 192° |
| 2026-05-07 10:00 | 48.32486 | 8.62879 | 35036 ft | 446 kts | 193° |
| 2026-05-07 10:00 | 48.26454 | 8.60996 | 35040 ft | 445 kts | 194° |
| 2026-05-07 10:01 | 48.20384 | 8.59104 | 35045 ft | 446 kts | 193° |
| 2026-05-07 10:01 | 48.14267 | 8.57264 | 35048 ft | 445 kts | 193° |
| 2026-05-07 10:01 | 48.11276 | 8.56384 | 34768 ft | 444 kts | 193° |
| 2026-05-07 10:02 | 48.08242 | 8.55495 | 34541 ft | 445 kts | 193° |
| 2026-05-07 10:02 | 48.05204 | 8.54605 | 34236 ft | 445 kts | 193° |
| 2026-05-07 10:02 | 48.02169 | 8.53710 | 33602 ft | 445 kts | 193° |
| 2026-05-07 10:02 | 47.99084 | 8.53129 | 32000 ft | 452 kts | 182° |
| 2026-05-07 10:03 | 47.95919 | 8.53455 | 30153 ft | 462 kts | 170° |
| 2026-05-07 10:03 | 47.92807 | 8.54766 | 28058 ft | 469 kts | 157° |
| 2026-05-07 10:03 | 47.89915 | 8.56984 | 26433 ft | 466 kts | 147° |
| 2026-05-07 10:03 | 47.87388 | 8.59834 | 25218 ft | 457 kts | 140° |
| 2026-05-07 10:04 | 47.84972 | 8.62785 | 24672 ft | 446 kts | 141° |
| 2026-05-07 10:04 | 47.82571 | 8.65678 | 23952 ft | 443 kts | 141° |
| 2026-05-07 10:04 | 47.80084 | 8.68377 | 22861 ft | 441 kts | 152° |
| 2026-05-07 10:04 | 47.77339 | 8.70280 | 21616 ft | 431 kts | 157° |
| 2026-05-07 10:05 | 47.74614 | 8.72027 | 20437 ft | 423 kts | 158° |
| 2026-05-07 10:05 | 47.71930 | 8.73730 | 19328 ft | 416 kts | 158° |
| 2026-05-07 10:05 | 47.70169 | 8.74843 | 18627 ft | 412 kts | 158° |
| 2026-05-07 10:05 | 47.67548 | 8.76496 | 17478 ft | 407 kts | 158° |
| 2026-05-07 10:06 | 47.64134 | 8.78653 | 15995 ft | 398 kts | 158° |
| 2026-05-07 10:06 | 47.61608 | 8.80251 | 14941 ft | 390 kts | 159° |
| 2026-05-07 10:06 | 47.59131 | 8.81773 | 13937 ft | 380 kts | 163° |
| 2026-05-07 10:06 | 47.56581 | 8.82258 | 12877 ft | 364 kts | 188° |
| 2026-05-07 10:07 | 47.54259 | 8.81104 | 11885 ft | 347 kts | 215° |
| 2026-05-07 10:07 | 47.52628 | 8.78614 | 11017 ft | 333 kts | 243° |
| 2026-05-07 10:07 | 47.52129 | 8.76527 | 10735 ft | 319 kts | 260° |
| 2026-05-07 10:07 | 47.51955 | 8.73408 | 10596 ft | 292 kts | 268° |
| 2026-05-07 10:08 | 47.51813 | 8.70491 | 10297 ft | 277 kts | 261° |
| 2026-05-07 10:08 | 47.51146 | 8.66892 | 9988 ft | 273 kts | 248° |
| 2026-05-07 10:08 | 47.50906 | 8.66078 | 9949 ft | 273 kts | 245° |
| 2026-05-07 10:08 | 47.50533 | 8.64972 | 9889 ft | 274 kts | 242° |
| 2026-05-07 10:09 | 47.49938 | 8.63461 | 9804 ft | 274 kts | 238° |
| 2026-05-07 10:09 | 47.48854 | 8.61146 | 9671 ft | 274 kts | 236° |
| 2026-05-07 10:09 | 47.48107 | 8.58593 | 9533 ft | 272 kts | 262° |
| 2026-05-07 10:09 | 47.48230 | 8.55824 | 9394 ft | 272 kts | 284° |
| 2026-05-07 10:10 | 47.49063 | 8.53355 | 9258 ft | 275 kts | 305° |
| 2026-05-07 10:10 | 47.50499 | 8.51451 | 8778 ft | 283 kts | 328° |
| 2026-05-07 10:10 | 47.52292 | 8.50247 | 8459 ft | 281 kts | 334° |
| 2026-05-07 10:10 | 47.54083 | 8.49092 | 8108 ft | 280 kts | 334° |
| 2026-05-07 10:11 | 47.55857 | 8.47928 | 7749 ft | 279 kts | 333° |
| 2026-05-07 10:11 | 47.57612 | 8.46767 | 7207 ft | 274 kts | 333° |
| 2026-05-07 10:11 | 47.59347 | 8.45612 | 6580 ft | 272 kts | 333° |
| 2026-05-07 10:11 | 47.61066 | 8.44463 | 5953 ft | 270 kts | 333° |
| 2026-05-07 10:12 | 47.62767 | 8.43329 | 5302 ft | 266 kts | 333° |
| 2026-05-07 10:12 | 47.64416 | 8.42235 | 5041 ft | 250 kts | 333° |
| 2026-05-07 10:12 | 47.65729 | 8.40875 | 4990 ft | 220 kts | 305° |
| 2026-05-07 10:12 | 47.66311 | 8.38917 | 4998 ft | 205 kts | 276° |
| 2026-05-07 10:13 | 47.66176 | 8.36836 | 4926 ft | 205 kts | 248° |
| 2026-05-07 10:13 | 47.65384 | 8.35151 | 4835 ft | 196 kts | 222° |
| 2026-05-07 10:13 | 47.64179 | 8.34243 | 4795 ft | 197 kts | 194° |
| 2026-05-07 10:13 | 47.62810 | 8.34284 | 4749 ft | 201 kts | 165° |
| 2026-05-07 10:14 | 47.61591 | 8.35312 | 4744 ft | 206 kts | 140° |
| 2026-05-07 10:14 | 47.60553 | 8.36701 | 4655 ft | 195 kts | 140° |
| 2026-05-07 10:14 | 47.59574 | 8.38032 | 4487 ft | 190 kts | 139° |
| 2026-05-07 10:14 | 47.58610 | 8.39353 | 4238 ft | 188 kts | 139° |
| 2026-05-07 10:15 | 47.57669 | 8.40644 | 3989 ft | 180 kts | 139° |
| 2026-05-07 10:15 | 47.56788 | 8.41855 | 3773 ft | 164 kts | 140° |
| 2026-05-07 10:15 | 47.55992 | 8.42947 | 3548 ft | 154 kts | 141° |
| 2026-05-07 10:15 | 47.55220 | 8.44007 | 3360 ft | 149 kts | 140° |
| 2026-05-07 10:16 | 47.54463 | 8.45043 | 3160 ft | 148 kts | 141° |
| 2026-05-07 10:16 | 47.53711 | 8.46074 | 2954 ft | 147 kts | 140° |
| 2026-05-07 10:16 | 47.52962 | 8.47100 | 2766 ft | 147 kts | 141° |
| 2026-05-07 10:16 | 47.52216 | 8.48122 | 2561 ft | 146 kts | 142° |
| 2026-05-07 10:17 | 47.51479 | 8.49132 | 2352 ft | 143 kts | 140° |
| 2026-05-07 10:17 | 47.50752 | 8.50129 | 2110 ft | 142 kts | 141° |
| 2026-05-07 10:17 | 47.50034 | 8.51112 | 1941 ft | 140 kts | 139° |
| 2026-05-07 10:17 | 47.49320 | 8.52090 | 1750 ft | 141 kts | 139° |
| 2026-05-07 10:18 | 47.48599 | 8.53075 | 1572 ft | 140 kts | 140° |
| 2026-05-07 10:18 | 47.47891 | 8.54043 | 1413 ft | 132 kts | 138° |
| 2026-05-07 10:18 | 47.47333 | 8.54803 | 1386 ft | 85 kts | 137° |
| 2026-05-07 10:18 | 47.47027 | 8.55221 | 1387 ft | 35 kts | 137° |
| 2026-05-07 10:19 | 47.46868 | 8.55438 | 1395 ft | 32 kts | 137° |
| 2026-05-07 10:19 | 47.46690 | 8.55631 | 1399 ft | 33 kts | 155° |
| 2026-05-07 10:19 | 47.46540 | 8.55698 | 1403 ft | 16 kts | 167° |
| 2026-05-07 10:19 | 47.46450 | 8.55727 | 1403 ft | 8 kts | 167° |
| 2026-05-07 10:20 | 47.46422 | 8.55737 | 1397 ft | 0 kts | 165° |
| 2026-05-07 10:22 | 47.46421 | 8.55737 | 1397 ft | 1 kts | 165° |
| 2026-05-07 10:22 | 47.46401 | 8.55748 | 1402 ft | 4 kts | 155° |
| 2026-05-07 10:23 | 47.46375 | 8.55771 | 1404 ft | 5 kts | 141° |
| 2026-05-07 10:23 | 47.46343 | 8.55812 | 1407 ft | 6 kts | 136° |
| 2026-05-07 10:23 | 47.46310 | 8.55858 | 1401 ft | 7 kts | 136° |
| 2026-05-07 10:23 | 47.46272 | 8.55910 | 1402 ft | 10 kts | 137° |
| 2026-05-07 10:24 | 47.46217 | 8.55983 | 1405 ft | 10 kts | 139° |
| 2026-05-07 10:24 | 47.46148 | 8.55998 | 1406 ft | 11 kts | 187° |
| 2026-05-07 10:24 | 47.46066 | 8.55986 | 1407 ft | 13 kts | 186° |
| 2026-05-07 10:24 | 47.45962 | 8.55965 | 1406 ft | 17 kts | 197° |
| 2026-05-07 10:25 | 47.45848 | 8.55906 | 1412 ft | 17 kts | 200° |
| 2026-05-07 10:25 | 47.45721 | 8.55868 | 1412 ft | 20 kts | 186° |
| 2026-05-07 10:25 | 47.45580 | 8.55846 | 1411 ft | 16 kts | 186° |
| 2026-05-07 10:25 | 47.45507 | 8.55783 | 1409 ft | 7 kts | 261° |
| 2026-05-07 10:26 | 47.45467 | 8.55752 | 1410 ft | 7 kts | 185° |
| 2026-05-07 10:26 | 47.45433 | 8.55748 | 1411 ft | 2 kts | 185° |
| 2026-05-07 10:26 | 47.45432 | 8.55747 | 1412 ft | 0 kts | 185° |